Time;durP1;ratioP1;P1;durP2;ratioP2;P2;SDS_P1;SDS_P2;PMS_P1;PMS_P2;Temp;Humidity;BMP_temperature;BMP_pressure;BME280_temperature;BME280_humidity;BME280_pressure;Samples;Min_cycle;Max_cycle;Signal;HPM_P1;HPM_P2
2023/09/09 00:01:50;;;;;;;;;;;;;;;;;;6277035;22;19914;-90
2023/09/09 00:04:15;;;;;;;;;;;;;;;;;;6277809;22;19919;-90
2023/09/09 00:06:41;;;;;;;;;;;;;;;;;;6303873;22;19941;-91
2023/09/09 00:09:07;;;;;;;;;;;;;;;;;;6303418;22;20001;-90
2023/09/09 00:11:33;;;;;;;;;;;;;;;;;;6278081;22;19918;-90
2023/09/09 00:13:59;;;;;;;;;;;;;;;;;;6277539;22;19958;-90
2023/09/09 00:16:25;;;;;;;;;;;;;;;;;;6277968;22;20415;-90
2023/09/09 00:18:52;;;;;;;;;;;;;;;;;;6278652;22;19915;-90
2023/09/09 00:21:18;;;;;;;;;;;;;;;;;;6303479;22;19940;-90
2023/09/09 00:23:44;;;;;;;;;;;;;;;;;;6276466;22;20251;-90
2023/09/09 00:26:10;;;;;;;;;;;;;;;;;;6278466;22;20388;-90
2023/09/09 00:28:36;;;;;;;;;;;;;;;;;;6303809;22;19956;-90
2023/09/09 00:31:02;;;;;;;;;;;;;;;;;;6275441;22;19918;-89
2023/09/09 00:33:28;;;;;;;;;;;;;;;;;;6304686;22;19992;-90
2023/09/09 00:35:54;;;;;;;;;;;;;;;;;;6305553;22;20433;-90
2023/09/09 00:38:20;;;;;;;;;;;;;;;;;;6315776;22;19918;-90
2023/09/09 00:40:46;;;;;;;;;;;;;;;;;;6312578;22;20433;-89
2023/09/09 00:43:12;;;;;;;;;;;;;;;;;;6261591;22;19922;-90
2023/09/09 00:45:38;;;;;;;;;;;;;;;;;;6274802;22;19923;-90
2023/09/09 00:48:04;;;;;;;;;;;;;;;;;;6304299;22;19965;-90
2023/09/09 00:50:30;;;;;;;;;;;;;;;;;;6276965;22;19919;-90
2023/09/09 00:52:56;;;;;;;;;;;;;;;;;;6277349;22;20361;-90
2023/09/09 00:55:26;;;;;;;;;;;;;;;;;;6278778;22;19964;-90
2023/09/09 00:57:52;;;;;;;;;;;;;;;;;;6277049;22;19919;-90
2023/09/09 01:00:18;;;;;;;;;;;;;;;;;;6276278;22;19924;-90
2023/09/09 01:02:44;;;;;;;;;;;;;;;;;;6273532;22;20339;-90
2023/09/09 01:05:10;;;;;;;;;;;;;;;;;;6301159;22;19918;-90
2023/09/09 01:07:36;;;;;;;;;;;;;;;;;;6278386;22;20088;-90
2023/09/09 01:10:02;;;;;;;;;;;;;;;;;;6277256;22;19918;-90
2023/09/09 01:12:28;;;;;;;;;;;;;;;;;;6278380;22;19918;-90
2023/09/09 01:14:54;;;;;;;;;;;;;;;;;;6303230;22;20331;-90
2023/09/09 01:17:20;;;;;;;;;;;;;;;;;;6274813;22;20234;-90
2023/09/09 01:19:46;;;;;;;;;;;;;;;;;;6277159;22;19944;-90
2023/09/09 01:22:12;;;;;;;;;;;;;;;;;;6277961;22;20338;-90
2023/09/09 01:24:40;;;;;;;;;;;;;;;;;;6279102;22;19925;-90
2023/09/09 01:27:06;;;;;;;;;;;;;;;;;;6275841;22;19980;-90
2023/09/09 01:29:34;;;;;;;;;;;;;;;;;;6304593;22;20018;-89
2023/09/09 01:32:00;;;;;;;;;;;;;;;;;;6304219;22;19994;-89
2023/09/09 01:34:26;;;;;;;;;;;;;;;;;;6278702;22;19965;-90
2023/09/09 01:36:52;;;;;;;;;;;;;;;;;;6277983;22;19968;-90
2023/09/09 01:39:18;;;;;;;;;;;;;;;;;;6304827;22;20319;-90
2023/09/09 01:41:44;;;;;;;;;;;;;;;;;;6304669;22;19922;-90
2023/09/09 01:44:10;;;;;;;;;;;;;;;;;;6278245;22;20044;-89
2023/09/09 01:46:36;;;;;;;;;;;;;;;;;;6275420;22;20270;-90
2023/09/09 01:49:03;;;;;;;;;;;;;;;;;;6305939;22;19965;-89
2023/09/09 01:51:31;;;;;;;;;;;;;;;;;;6276565;22;19925;-90
2023/09/09 01:53:58;;;;;;;;;;;;;;;;;;6302647;22;20029;-90
2023/09/09 01:56:24;;;;;;;;;;;;;;;;;;6277475;22;19989;-90
2023/09/09 01:58:50;;;;;;;;;;;;;;;;;;6275978;22;19961;-89
2023/09/09 02:01:15;;;;;;;;;;;;;;;;;;6301248;22;19914;-90
2023/09/09 02:03:41;;;;;;;;;;;;;;;;;;6303032;22;19922;-90
2023/09/09 02:06:07;;;;;;;;;;;;;;;;;;6276583;22;19919;-90
2023/09/09 02:08:33;;;;;;;;;;;;;;;;;;6302005;22;20517;-90
2023/09/09 02:10:59;;;;;;;;;;;;;;;;;;6302053;22;19919;-90
2023/09/09 02:13:25;;;;;;;;;;;;;;;;;;6302703;22;19969;-90
2023/09/09 02:15:51;;;;;;;;;;;;;;;;;;6277063;22;19919;-90
2023/09/09 02:18:17;;;;;;;;;;;;;;;;;;6301997;22;19926;-90
2023/09/09 02:20:43;;;;;;;;;;;;;;;;;;6300837;22;19979;-90
2023/09/09 02:23:10;;;;;;;;;;;;;;;;;;6302293;22;20401;-90
2023/09/09 02:25:36;;;;;;;;;;;;;;;;;;6330303;22;19918;-90
2023/09/09 02:28:02;;;;;;;;;;;;;;;;;;6302285;22;19949;-90
2023/09/09 02:30:28;;;;;;;;;;;;;;;;;;6302893;22;19975;-90
2023/09/09 02:32:54;;;;;;;;;;;;;;;;;;6275131;22;19922;-90
2023/09/09 02:35:20;;;;;;;;;;;;;;;;;;6302648;22;19958;-90
2023/09/09 02:37:45;;;;;;;;;;;;;;;;;;6302386;22;19922;-90
2023/09/09 02:40:12;;;;;;;;;;;;;;;;;;6301976;22;20340;-89
2023/09/09 02:42:38;;;;;;;;;;;;;;;;;;6302996;22;19938;-90
2023/09/09 02:45:04;;;;;;;;;;;;;;;;;;6302595;22;19918;-90
2023/09/09 02:47:29;;;;;;;;;;;;;;;;;;6301510;22;19926;-89
2023/09/09 02:49:55;;;;;;;;;;;;;;;;;;6302742;22;19919;-89
2023/09/09 02:52:21;;;;;;;;;;;;;;;;;;6303391;22;19964;-90
2023/09/09 02:54:48;;;;;;;;;;;;;;;;;;6304819;22;19932;-90
2023/09/09 02:57:14;;;;;;;;;;;;;;;;;;6305139;22;19990;-90
2023/09/09 02:59:40;;;;;;;;;;;;;;;;;;6303544;22;19918;-89
2023/09/09 03:02:06;;;;;;;;;;;;;;;;;;6277615;22;19925;-90
2023/09/09 03:04:32;;;;;;;;;;;;;;;;;;6279006;22;19963;-90
2023/09/09 03:07:01;;;;;;;;;;;;;;;;;;6331290;22;19925;-90
2023/09/09 03:09:29;;;;;;;;;;;;;;;;;;6304068;22;20261;-90
2023/09/09 03:11:56;;;;;;;;;;;;;;;;;;6278882;22;19960;-90
2023/09/09 03:14:22;;;;;;;;;;;;;;;;;;6304142;22;19929;-90
2023/09/09 03:16:48;;;;;;;;;;;;;;;;;;6304084;22;19923;-89
2023/09/09 03:19:14;;;;;;;;;;;;;;;;;;6305145;22;20392;-89
2023/09/09 03:21:40;;;;;;;;;;;;;;;;;;6303925;22;19922;-90
2023/09/09 03:24:06;;;;;;;;;;;;;;;;;;6278501;22;20335;-89
2023/09/09 03:26:32;;;;;;;;;;;;;;;;;;6304351;22;19919;-90
2023/09/09 03:28:59;;;;;;;;;;;;;;;;;;6277693;22;19999;-89
2023/09/09 03:31:25;;;;;;;;;;;;;;;;;;6303290;22;19918;-89
2023/09/09 03:33:51;;;;;;;;;;;;;;;;;;6304948;22;20327;-89
2023/09/09 03:36:17;;;;;;;;;;;;;;;;;;6278064;22;19922;-89
2023/09/09 03:38:43;;;;;;;;;;;;;;;;;;6276838;22;19922;-90
2023/09/09 03:41:09;;;;;;;;;;;;;;;;;;6279215;22;20235;-90
2023/09/09 03:43:35;;;;;;;;;;;;;;;;;;6277053;22;19918;-89
2023/09/09 03:46:01;;;;;;;;;;;;;;;;;;6278768;22;19918;-90
2023/09/09 03:48:26;;;;;;;;;;;;;;;;;;6276698;22;19918;-90
2023/09/09 03:50:52;;;;;;;;;;;;;;;;;;6303684;22;19926;-89
2023/09/09 03:53:18;;;;;;;;;;;;;;;;;;6279844;22;19921;-89
2023/09/09 03:55:45;;;;;;;;;;;;;;;;;;6304417;22;20369;-90
2023/09/09 03:58:11;;;;;;;;;;;;;;;;;;6304547;22;19918;-89
2023/09/09 04:00:37;;;;;;;;;;;;;;;;;;6302847;22;20411;-90
2023/09/09 04:03:03;;;;;;;;;;;;;;;;;;6304584;22;19918;-90
2023/09/09 04:05:29;;;;;;;;;;;;;;;;;;6279035;22;19957;-90
2023/09/09 04:07:58;;;;;;;;;;;;;;;;;;6277088;22;20241;-90
2023/09/09 04:10:24;;;;;;;;;;;;;;;;;;6303294;22;19925;-90
2023/09/09 04:12:50;;;;;;;;;;;;;;;;;;6331420;22;19918;-89
2023/09/09 04:15:15;;;;;;;;;;;;;;;;;;6304434;22;19984;-89
2023/09/09 04:17:41;;;;;;;;;;;;;;;;;;6304879;22;19919;-89
2023/09/09 04:20:10;;;;;;;;;;;;;;;;;;6333834;22;20024;-90
2023/09/09 04:22:36;;;;;;;;;;;;;;;;;;6278219;22;19919;-90
2023/09/09 04:25:02;;;;;;;;;;;;;;;;;;6305460;22;19966;-90
2023/09/09 04:27:28;;;;;;;;;;;;;;;;;;6304177;22;19957;-90
2023/09/09 04:29:54;;;;;;;;;;;;;;;;;;6278462;22;19919;-89
2023/09/09 04:32:20;;;;;;;;;;;;;;;;;;6276229;22;19997;-90
2023/09/09 04:34:46;;;;;;;;;;;;;;;;;;6277763;22;19930;-89
2023/09/09 04:37:14;;;;;;;;;;;;;;;;;;6302039;22;19968;-89
2023/09/09 04:39:40;;;;;;;;;;;;;;;;;;6303115;22;19968;-90
2023/09/09 04:42:06;;;;;;;;;;;;;;;;;;6302996;22;20777;-90
2023/09/09 04:44:32;;;;;;;;;;;;;;;;;;6303214;22;19949;-89
2023/09/09 04:46:58;;;;;;;;;;;;;;;;;;6330793;22;19976;-89
2023/09/09 04:49:24;;;;;;;;;;;;;;;;;;6278632;22;20216;-90
2023/09/09 04:51:50;;;;;;;;;;;;;;;;;;6302567;22;19925;-90
2023/09/09 04:54:18;;;;;;;;;;;;;;;;;;6303398;22;19918;-90
2023/09/09 04:56:44;;;;;;;;;;;;;;;;;;6302522;22;19985;-90
2023/09/09 04:59:10;;;;;;;;;;;;;;;;;;6303820;22;19926;-90
2023/09/09 05:01:36;;;;;;;;;;;;;;;;;;6300140;22;20197;-90
2023/09/09 05:04:02;;;;;;;;;;;;;;;;;;6278082;22;19925;-90
2023/09/09 05:06:28;;;;;;;;;;;;;;;;;;6277586;22;20308;-90
2023/09/09 05:08:54;;;;;;;;;;;;;;;;;;6275575;22;19956;-90
2023/09/09 05:11:20;;;;;;;;;;;;;;;;;;6302055;22;20365;-90
2023/09/09 05:13:46;;;;;;;;;;;;;;;;;;6279748;22;19918;-89
2023/09/09 05:16:12;;;;;;;;;;;;;;;;;;6304162;22;19925;-90
2023/09/09 05:18:38;;;;;;;;;;;;;;;;;;6332730;22;19923;-89
2023/09/09 05:21:04;;;;;;;;;;;;;;;;;;6301910;22;19929;-89
2023/09/09 05:23:30;;;;;;;;;;;;;;;;;;6279348;22;20281;-90
2023/09/09 05:25:56;;;;;;;;;;;;;;;;;;6275941;22;19957;-90
2023/09/09 05:28:22;;;;;;;;;;;;;;;;;;6302390;22;20391;-89
2023/09/09 05:30:48;;;;;;;;;;;;;;;;;;6301054;22;19923;-90
2023/09/09 05:33:14;;;;;;;;;;;;;;;;;;6303484;22;19987;-90
2023/09/09 05:35:40;;;;;;;;;;;;;;;;;;6330152;22;19915;-89
2023/09/09 05:38:05;;;;;;;;;;;;;;;;;;6276198;22;19919;-90
2023/09/09 05:40:31;;;;;;;;;;;;;;;;;;6302944;22;19985;-90
2023/09/09 05:42:57;;;;;;;;;;;;;;;;;;6333033;22;19923;-90
2023/09/09 05:45:23;;;;;;;;;;;;;;;;;;6298924;22;20098;-90
2023/09/09 05:47:49;;;;;;;;;;;;;;;;;;6274764;22;20429;-90
2023/09/09 05:50:16;;;;;;;;;;;;;;;;;;6300424;22;20323;-82
2023/09/09 05:52:42;;;;;;;;;;;;;;;;;;6327708;22;20292;-84
2023/09/09 05:55:08;;;;;;;;;;;;;;;;;;6302223;22;19922;-83
2023/09/09 05:57:34;;;;;;;;;;;;;;;;;;6300447;22;19918;-83
2023/09/09 06:00:00;;;;;;;;;;;;;;;;;;6326555;22;20247;-82
2023/09/09 06:02:26;;;;;;;;;;;;;;;;;;6301028;22;20317;-82
2023/09/09 06:04:52;;;;;;;;;;;;;;;;;;6328168;22;19971;-83
2023/09/09 06:07:18;;;;;;;;;;;;;;;;;;6302746;22;20414;-82
2023/09/09 06:09:44;;;;;;;;;;;;;;;;;;6302466;22;19925;-82
2023/09/09 06:12:17;;;;;;;;;;;;;;;;;;6330005;22;20264;-83
2023/09/09 06:14:43;;;;;;;;;;;;;;;;;;6301211;22;19930;-82
2023/09/09 06:17:09;;;;;;;;;;;;;;;;;;6302239;22;19993;-83
2023/09/09 06:19:35;;;;;;;;;;;;;;;;;;6300273;22;19945;-82
2023/09/09 06:22:01;;;;;;;;;;;;;;;;;;6275792;22;19968;-82
2023/09/09 06:24:27;;;;;;;;;;;;;;;;;;6300239;22;19965;-82
2023/09/09 06:26:53;;;;;;;;;;;;;;;;;;6302708;22;20381;-84
2023/09/09 06:29:19;;;;;;;;;;;;;;;;;;6301092;22;20220;-84
2023/09/09 06:31:45;;;;;;;;;;;;;;;;;;6273454;22;19919;-83
2023/09/09 06:34:11;;;;;;;;;;;;;;;;;;6303502;22;20029;-84
2023/09/09 06:36:37;;;;;;;;;;;;;;;;;;6301576;22;19919;-84
2023/09/09 06:39:03;;;;;;;;;;;;;;;;;;6276998;22;20240;-85
2023/09/09 06:41:29;;;;;;;;;;;;;;;;;;6302110;22;19925;-82
2023/09/09 06:43:55;;;;;;;;;;;;;;;;;;6304137;22;20056;-82
2023/09/09 06:46:22;;;;;;;;;;;;;;;;;;6301691;22;19918;-83
2023/09/09 06:48:49;;;;;;;;;;;;;;;;;;6304909;22;20365;-83
2023/09/09 06:51:16;;;;;;;;;;;;;;;;;;6302412;22;19989;-83
2023/09/09 06:53:41;;;;;;;;;;;;;;;;;;6332346;22;19962;-83
2023/09/09 06:56:07;;;;;;;;;;;;;;;;;;6333325;22;20269;-83
2023/09/09 06:58:33;;;;;;;;;;;;;;;;;;6303475;22;19987;-82
2023/09/09 07:01:02;;;;;;;;;;;;;;;;;;6330982;22;19914;-83
2023/09/09 07:03:28;;;;;;;;;;;;;;;;;;6275025;22;20334;-83
2023/09/09 07:05:54;;;;;;;;;;;;;;;;;;6300794;22;19918;-83
2023/09/09 07:08:20;;;;;;;;;;;;;;;;;;6303480;22;19914;-83
2023/09/09 07:10:46;;;;;;;;;;;;;;;;;;6276156;22;19918;-83
2023/09/09 07:13:12;;;;;;;;;;;;;;;;;;6275371;22;19918;-83
2023/09/09 07:15:38;;;;;;;;;;;;;;;;;;6301424;22;19929;-83
2023/09/09 07:18:04;;;;;;;;;;;;;;;;;;6276507;22;19952;-83
2023/09/09 07:20:30;;;;;;;;;;;;;;;;;;6301604;22;20355;-83
2023/09/09 07:22:56;;;;;;;;;;;;;;;;;;6276956;22;19954;-83
2023/09/09 07:25:22;;;;;;;;;;;;;;;;;;6302496;22;19919;-83
2023/09/09 07:27:48;;;;;;;;;;;;;;;;;;6301044;22;19992;-83
2023/09/09 07:30:14;;;;;;;;;;;;;;;;;;6303756;22;20337;-83
2023/09/09 07:32:40;;;;;;;;;;;;;;;;;;6302256;22;19925;-83
2023/09/09 07:35:06;;;;;;;;;;;;;;;;;;6301426;22;19922;-83
2023/09/09 07:37:35;;;;;;;;;;;;;;;;;;6301940;22;19941;-90
2023/09/09 07:40:01;;;;;;;;;;;;;;;;;;6277803;22;19987;-90
2023/09/09 07:42:27;;;;;;;;;;;;;;;;;;6278223;22;19915;-91
2023/09/09 07:44:53;;;;;;;;;;;;;;;;;;6279714;22;20268;-91
2023/09/09 07:47:20;;;;;;;;;;;;;;;;;;6277640;22;19960;-90
2023/09/09 07:49:46;;;;;;;;;;;;;;;;;;6279807;22;20040;-90
2023/09/09 07:52:12;;;;;;;;;;;;;;;;;;6279277;22;19919;-90
2023/09/09 07:54:38;;;;;;;;;;;;;;;;;;6279865;22;19926;-91
2023/09/09 07:57:04;;;;;;;;;;;;;;;;;;6277545;22;19918;-91
2023/09/09 07:59:30;;;;;;;;;;;;;;;;;;6280211;22;20013;-91
2023/09/09 08:01:56;;;;;;;;;;;;;;;;;;6303568;22;19931;-91
2023/09/09 08:04:22;;;;;;;;;;;;;;;;;;6303818;22;19918;-91
2023/09/09 08:06:50;;;;;;;;;;;;;;;;;;6278566;22;19919;-90
2023/09/09 08:09:16;;;;;;;;;;;;;;;;;;6278704;22;19925;-91
2023/09/09 08:11:42;;;;;;;;;;;;;;;;;;6302983;22;19918;-91
2023/09/09 08:14:08;;;;;;;;;;;;;;;;;;6304723;22;19926;-87
2023/09/09 08:16:34;;;;;;;;;;;;;;;;;;6301695;22;19915;-90
2023/09/09 08:19:00;;;;;;;;;;;;;;;;;;6303862;22;20412;-90
2023/09/09 08:21:26;;;;;;;;;;;;;;;;;;6277115;22;19954;-91
2023/09/09 08:23:53;;;;;;;;;;;;;;;;;;6278474;22;19919;-90
2023/09/09 08:26:19;;;;;;;;;;;;;;;;;;6279162;22;20002;-91
2023/09/09 08:28:45;;;;;;;;;;;;;;;;;;6278049;22;19950;-90
2023/09/09 08:31:11;;;;;;;;;;;;;;;;;;6301857;22;19952;-91
2023/09/09 08:33:40;;;;;;;;;;;;;;;;;;6303493;22;19969;-90
2023/09/09 08:36:06;;;;;;;;;;;;;;;;;;6331207;22;19934;-90
2023/09/09 08:38:32;;;;;;;;;;;;;;;;;;6303288;22;19919;-90
2023/09/09 08:40:58;;;;;;;;;;;;;;;;;;6313752;22;20391;-90
2023/09/09 08:43:24;;;;;;;;;;;;;;;;;;6309410;22;19940;-91
2023/09/09 08:45:50;;;;;;;;;;;;;;;;;;6303935;22;19968;-90
2023/09/09 08:48:16;;;;;;;;;;;;;;;;;;6305823;22;19921;-91
2023/09/09 08:50:42;;;;;;;;;;;;;;;;;;6276969;22;19918;-90
2023/09/09 08:53:08;;;;;;;;;;;;;;;;;;6304085;22;20322;-90
2023/09/09 08:55:33;;;;;;;;;;;;;;;;;;6278035;22;19971;-91
2023/09/09 08:57:59;;;;;;;;;;;;;;;;;;6303698;22;19918;-90
2023/09/09 09:00:25;;;;;;;;;;;;;;;;;;6304630;22;19922;-89
2023/09/09 09:02:51;;;;;;;;;;;;;;;;;;6278541;22;20319;-90
2023/09/09 09:05:17;;;;;;;;;;;;;;;;;;6300500;22;19953;-91
2023/09/09 09:07:43;;;;;;;;;;;;;;;;;;6274307;22;20299;-91
2023/09/09 09:10:09;;;;;;;;;;;;;;;;;;6274959;22;20293;-89
2023/09/09 09:12:37;;;;;;;;;;;;;;;;;;6278395;22;19919;-90
2023/09/09 09:15:03;;;;;;;;;;;;;;;;;;6303747;22;19922;-90
2023/09/09 09:17:30;;;;;;;;;;;;;;;;;;6280213;22;20438;-90
2023/09/09 09:19:56;;;;;;;;;;;;;;;;;;6305472;22;19922;-91
2023/09/09 09:22:22;;;;;;;;;;;;;;;;;;6304270;22;19979;-91
2023/09/09 09:24:48;;;;;;;;;;;;;;;;;;6306231;22;19919;-90
2023/09/09 09:27:14;;;;;;;;;;;;;;;;;;6306108;22;20358;-91
2023/09/09 09:29:40;;;;;;;;;;;;;;;;;;6305579;22;19918;-90
2023/09/09 09:32:06;;;;;;;;;;;;;;;;;;6303703;22;19923;-90
2023/09/09 09:34:32;;;;;;;;;;;;;;;;;;6305241;22;19922;-91
2023/09/09 09:36:58;;;;;;;;;;;;;;;;;;6302277;22;19918;-91
2023/09/09 09:39:24;;;;;;;;;;;;;;;;;;6279883;22;19915;-91
2023/09/09 09:41:50;;;;;;;;;;;;;;;;;;6331998;22;19918;-90
2023/09/09 09:44:16;;;;;;;;;;;;;;;;;;6281162;22;20323;-91
2023/09/09 09:46:42;;;;;;;;;;;;;;;;;;6277349;22;20251;-91
2023/09/09 09:49:08;;;;;;;;;;;;;;;;;;6278408;22;19923;-90
2023/09/09 09:51:34;;;;;;;;;;;;;;;;;;6276517;22;19919;-90
2023/09/09 09:54:00;;;;;;;;;;;;;;;;;;6305528;22;20335;-91
2023/09/09 09:56:26;;;;;;;;;;;;;;;;;;6277984;22;19964;-91
2023/09/09 09:58:52;;;;;;;;;;;;;;;;;;6279264;22;19972;-91
2023/09/09 10:01:18;;;;;;;;;;;;;;;;;;6304038;22;19961;-90
2023/09/09 10:03:44;;;;;;;;;;;;;;;;;;6305634;22;19946;-91
2023/09/09 10:06:10;;;;;;;;;;;;;;;;;;6303085;22;19918;-91
2023/09/09 10:08:39;;;;;;;;;;;;;;;;;;6277901;22;19918;-91
2023/09/09 10:11:05;;;;;;;;;;;;;;;;;;6277958;22;20228;-89
2023/09/09 10:13:31;;;;;;;;;;;;;;;;;;6305748;22;19918;-91
2023/09/09 10:15:57;;;;;;;;;;;;;;;;;;6277385;22;20327;-91
2023/09/09 10:18:23;;;;;;;;;;;;;;;;;;6277602;22;20343;-91
2023/09/09 10:20:51;;;;;;;;;;;;;;;;;;6278001;22;19929;-90
2023/09/09 10:23:17;;;;;;;;;;;;;;;;;;6279831;22;19927;-90
2023/09/09 10:25:43;;;;;;;;;;;;;;;;;;6276161;22;20342;-90
2023/09/09 10:28:09;;;;;;;;;;;;;;;;;;6275977;22;20327;-91
2023/09/09 10:30:36;;;;;;;;;;;;;;;;;;6276917;22;19914;-91
2023/09/09 10:33:02;;;;;;;;;;;;;;;;;;6280254;22;19949;-91
2023/09/09 10:35:31;;;;;;;;;;;;;;;;;;6277148;22;20008;-91
2023/09/09 10:37:57;;;;;;;;;;;;;;;;;;6279200;22;19964;-91
2023/09/09 10:40:23;;;;;;;;;;;;;;;;;;6305545;22;20031;-91
2023/09/09 10:42:51;;;;;;;;;;;;;;;;;;6279734;22;19968;-91
2023/09/09 10:45:18;;;;;;;;;;;;;;;;;;6279582;22;20339;-91
2023/09/09 10:47:52;;;;;;;;;;;;;;;;;;6305578;22;19919;-91
2023/09/09 10:50:18;;;;;;;;;;;;;;;;;;6330595;22;20357;-91
2023/09/09 10:52:47;;;;;;;;;;;;;;;;;;6305157;22;19918;-90
2023/09/09 10:55:25;;;;;;;;;;;;;;;;;;;;;
2023/09/09 11:04:00;;;;;;;;;;;;;;;;;;6174780;23;20289;-91
2023/09/09 11:06:48;;;;;;;;;;;;;;;;;;;;;
2023/09/09 11:09:30;;;;;;;;;;;;;;;;;;6338587;22;19923;-90
2023/09/09 11:12:11;;;;;;;;;;;;;;;;;;6272505;22;19918;-91
2023/09/09 11:14:46;;;;;;;;;;;;;;;;;;6278018;22;20085;-92
2023/09/09 11:23:31;;;;;;;;;;;;;;;;;;6256595;22;19965;-90
2023/09/09 11:26:05;;;;;;;;;;;;;;;;;;6271634;22;20348;-90
2023/09/09 11:28:47;;;;;;;;;;;;;;;;;;;;;
2023/09/09 11:31:36;;;;;;;;;;;;;;;;;;6240594;22;19919;-91
2023/09/09 11:34:20;;;;;;;;;;;;;;;;;;6264942;22;20478;-91
2023/09/09 11:36:51;;;;;;;;;;;;;;;;;;6234118;22;19919;-90
2023/09/09 11:42:50;;;;;;;;;;;;;;;;;;;;;
2023/09/09 11:45:29;;;;;;;;;;;;;;;;;;;;;
2023/09/09 11:48:14;;;;;;;;;;;;;;;;;;;;;
2023/09/09 11:50:59;;;;;;;;;;;;;;;;;;6306341;22;20450;-91
2023/09/09 11:56:39;;;;;;;;;;;;;;;;;;6306846;22;19922;-90
2023/09/09 11:59:25;;;;;;;;;;;;;;;;;;6256690;22;19923;-91
2023/09/09 12:02:04;;;;;;;;;;;;;;;;;;6304671;22;19941;-91
2023/09/09 12:04:45;;;;;;;;;;;;;;;;;;6277854;22;20346;-91
2023/09/09 12:07:30;;;;;;;;;;;;;;;;;;;;;
2023/09/09 12:10:00;;;;;;;;;;;;;;;;;;6302012;22;19998;-90
2023/09/09 12:18:05;;;;;;;;;;;;;;;;;;6328895;22;19922;-85
2023/09/09 12:20:31;;;;;;;;;;;;;;;;;;6332333;22;19970;-85
2023/09/09 12:22:57;;;;;;;;;;;;;;;;;;6304061;22;19965;-86
2023/09/09 12:25:23;;;;;;;;;;;;;;;;;;6300033;22;19926;-86
2023/09/09 12:28:07;;;;;;;;;;;;;;;;;;6304642;22;19918;-88
2023/09/09 12:30:33;;;;;;;;;;;;;;;;;;6299766;22;19940;-87
2023/09/09 12:32:59;;;;;;;;;;;;;;;;;;6330750;22;20418;-86
2023/09/09 12:35:26;;;;;;;;;;;;;;;;;;6303363;22;19930;-86
2023/09/09 12:37:52;;;;;;;;;;;;;;;;;;6301424;22;19922;-86
2023/09/09 12:40:20;;;;;;;;;;;;;;;;;;6303998;22;20531;-87
2023/09/09 12:42:49;;;;;;;;;;;;;;;;;;6329522;22;19914;-87
2023/09/09 12:45:18;;;;;;;;;;;;;;;;;;6301749;22;19995;-87
2023/09/09 12:47:44;;;;;;;;;;;;;;;;;;6303432;22;19922;-87
2023/09/09 12:50:13;;;;;;;;;;;;;;;;;;6300975;22;19965;-87
2023/09/09 12:52:39;;;;;;;;;;;;;;;;;;6303789;22;19918;-86
2023/09/09 12:55:05;;;;;;;;;;;;;;;;;;6304523;22;20331;-86
2023/09/09 12:57:31;;;;;;;;;;;;;;;;;;6329409;22;19918;-86
2023/09/09 12:59:57;;;;;;;;;;;;;;;;;;6331514;22;20014;-87
2023/09/09 13:02:23;;;;;;;;;;;;;;;;;;6303405;22;19914;-87
2023/09/09 13:04:49;;;;;;;;;;;;;;;;;;6300498;22;19961;-86
2023/09/09 13:07:15;;;;;;;;;;;;;;;;;;6331155;22;20335;-87
2023/09/09 13:09:41;;;;;;;;;;;;;;;;;;6332254;22;19996;-87
2023/09/09 13:12:07;;;;;;;;;;;;;;;;;;6305392;22;19918;-87
2023/09/09 13:14:33;;;;;;;;;;;;;;;;;;6332188;22;20002;-87
2023/09/09 13:16:59;;;;;;;;;;;;;;;;;;6305020;22;19953;-87
2023/09/09 13:19:34;;;;;;;;;;;;;;;;;;6332229;22;19921;-87
2023/09/09 13:22:00;;;;;;;;;;;;;;;;;;6305277;22;20315;-87
2023/09/09 13:24:26;;;;;;;;;;;;;;;;;;6305826;22;19919;-87
2023/09/09 13:26:52;;;;;;;;;;;;;;;;;;6305613;22;19925;-87
2023/09/09 13:29:19;;;;;;;;;;;;;;;;;;6304841;22;19993;-87
2023/09/09 13:31:45;;;;;;;;;;;;;;;;;;6304581;22;20251;-87
2023/09/09 13:34:13;;;;;;;;;;;;;;;;;;6306496;22;20243;-88
2023/09/09 13:36:42;;;;;;;;;;;;;;;;;;6329862;22;19915;-87
2023/09/09 13:39:08;;;;;;;;;;;;;;;;;;6302010;22;19923;-87
2023/09/09 13:41:52;;;;;;;;;;;;;;;;;;6303808;22;19923;-87
2023/09/09 13:44:24;;;;;;;;;;;;;;;;;;6302071;22;19923;-86
2023/09/09 13:46:53;;;;;;;;;;;;;;;;;;6305032;22;19936;-86
2023/09/09 13:49:19;;;;;;;;;;;;;;;;;;6300723;22;19925;-86
2023/09/09 13:51:45;;;;;;;;;;;;;;;;;;6303767;22;19918;-86
2023/09/09 13:54:11;;;;;;;;;;;;;;;;;;6304418;22;20422;-86
2023/09/09 13:56:37;;;;;;;;;;;;;;;;;;6304110;22;19957;-87
2023/09/09 13:59:03;;;;;;;;;;;;;;;;;;6302112;22;19973;-87
2023/09/09 14:01:29;;;;;;;;;;;;;;;;;;6304291;22;20305;-87
2023/09/09 14:03:55;;;;;;;;;;;;;;;;;;6302553;22;19914;-87
2023/09/09 14:06:21;;;;;;;;;;;;;;;;;;6302771;22;19972;-87
2023/09/09 14:08:51;;;;;;;;;;;;;;;;;;6329460;22;20378;-87
2023/09/09 14:11:20;;;;;;;;;;;;;;;;;;6330844;22;19967;-87
2023/09/09 14:13:49;;;;;;;;;;;;;;;;;;6325215;22;20044;-86
2023/09/09 14:16:15;;;;;;;;;;;;;;;;;;6302736;22;20614;-87
2023/09/09 14:18:41;;;;;;;;;;;;;;;;;;6327333;22;19929;-87
2023/09/09 14:21:07;;;;;;;;;;;;;;;;;;6327608;22;19922;-87
2023/09/09 14:23:35;;;;;;;;;;;;;;;;;;6300304;22;19915;-87
2023/09/09 14:26:20;;;;;;;;;;;;;;;;;;;;;
2023/09/09 14:29:37;;;;;;;;;;;;;;;;;;;;;
2023/09/09 14:35:41;;;;;;;;;;;;;;;;;;6300025;22;19922;-88
2023/09/09 14:42:12;;;;;;;;;;;;;;;;;;6298736;22;19915;-88
2023/09/09 14:55:34;;;;;;;;;;;;;;;;;;6308557;22;19922;-87
2023/09/09 15:04:41;;;;;;;;;;;;;;;;;;;;;
2023/09/09 15:07:13;;;;;;;;;;;;;;;;;;6230404;23;19927;-86
2023/09/09 15:09:44;;;;;;;;;;;;;;;;;;6206297;23;19920;-85
2023/09/09 15:14:46;;;;;;;;;;;;;;;;;;6315317;22;19971;-85
2023/09/09 15:17:14;;;;;;;;;;;;;;;;;;6274495;22;19923;-86
2023/09/09 15:19:54;;;;;;;;;;;;;;;;;;6299355;22;20002;-87
2023/09/09 15:22:19;;;;;;;;;;;;;;;;;;6298968;22;19918;-85
2023/09/09 15:24:48;;;;;;;;;;;;;;;;;;6272901;22;19924;-87
2023/09/09 15:27:25;;;;;;;;;;;;;;;;;;;;;
2023/09/09 15:30:10;;;;;;;;;;;;;;;;;;6294308;22;19919;-86
2023/09/09 15:32:44;;;;;;;;;;;;;;;;;;6271851;22;19919;-85
2023/09/09 15:35:16;;;;;;;;;;;;;;;;;;6270566;22;19923;-87
2023/09/09 15:37:51;;;;;;;;;;;;;;;;;;6270342;22;20370;-86
2023/09/09 15:46:29;;;;;;;;;;;;;;;;;;6331170;22;19922;-83
2023/09/09 15:48:56;;;;;;;;;;;;;;;;;;6327414;22;20333;-83
2023/09/09 15:51:22;;;;;;;;;;;;;;;;;;6327481;22;20323;-82
2023/09/09 15:53:53;;;;;;;;;;;;;;;;;;6326158;22;19923;-83
2023/09/09 15:56:29;;;;;;;;;;;;;;;;;;6326368;22;19922;-84
2023/09/09 16:14:47;;;;;;;;;;;;;;;;;;6137238;23;19924;-83
2023/09/09 16:23:17;;;;;;;;;;;;;;;;;;6218830;23;19995;-83
2023/09/09 16:37:35;;;;;;;;;;;;;;;;;;6322154;22;19922;-83
2023/09/09 16:40:08;;;;;;;;;;;;;;;;;;6272222;22;20345;-82
2023/09/09 16:42:44;;;;;;;;;;;;;;;;;;;;;
2023/09/09 16:48:02;;;;;;;;;;;;;;;;;;6296622;22;19946;-83
2023/09/09 16:50:31;;;;;;;;;;;;;;;;;;6269799;22;19919;-83
2023/09/09 16:53:02;;;;;;;;;;;;;;;;;;6272713;22;19918;-83
2023/09/09 16:55:31;;;;;;;;;;;;;;;;;;6273084;22;20023;-83
2023/09/09 16:58:06;;;;;;;;;;;;;;;;;;6273003;22;19915;-83
2023/09/09 17:00:38;;;;;;;;;;;;;;;;;;6271488;22;20376;-83
2023/09/09 17:03:20;;;;;;;;;;;;;;;;;;6300308;22;19933;-83
2023/09/09 17:05:49;;;;;;;;;;;;;;;;;;6296296;22;19925;-82
2023/09/09 17:08:17;;;;;;;;;;;;;;;;;;6269610;22;19993;-83
2023/09/09 17:10:49;;;;;;;;;;;;;;;;;;6272293;22;19915;-82
2023/09/09 17:16:19;;;;;;;;;;;;;;;;;;6334870;22;20316;-82
2023/09/09 17:18:47;;;;;;;;;;;;;;;;;;6270801;22;19918;-84
2023/09/09 17:21:19;;;;;;;;;;;;;;;;;;6273168;22;19915;-83
2023/09/09 17:23:48;;;;;;;;;;;;;;;;;;6325256;22;19919;-83
2023/09/09 17:26:20;;;;;;;;;;;;;;;;;;6272803;22;19918;-83
2023/09/09 17:28:46;;;;;;;;;;;;;;;;;;6297948;22;19922;-83
2023/09/09 17:31:14;;;;;;;;;;;;;;;;;;6271275;22;19919;-83
2023/09/09 17:33:46;;;;;;;;;;;;;;;;;;6274596;22;19915;-83
2023/09/09 17:36:15;;;;;;;;;;;;;;;;;;6272896;22;19923;-82
2023/09/09 17:38:48;;;;;;;;;;;;;;;;;;6273837;22;19918;-83
2023/09/09 17:41:17;;;;;;;;;;;;;;;;;;6271559;22;19930;-83
2023/09/09 17:44:01;;;;;;;;;;;;;;;;;;6270730;22;20476;-82
2023/09/09 17:58:53;;;;;;;;;;;;;;;;;;;;;
2023/09/09 18:01:31;;;;;;;;;;;;;;;;;;6141142;23;19928;-83
2023/09/09 18:57:19;;;;;;;;;;;;;;;;;;6287109;22;19941;-82
2023/09/09 18:59:48;;;;;;;;;;;;;;;;;;6237835;22;19923;-82
2023/09/09 19:02:34;;;;;;;;;;;;;;;;;;6263703;22;19926;-82
2023/09/09 19:08:19;;;;;;;;;;;;;;;;;;;;;
2023/09/09 19:10:48;;;;;;;;;;;;;;;;;;6264896;22;19930;-83
2023/09/09 19:13:20;;;;;;;;;;;;;;;;;;6259869;22;19919;-83
2023/09/09 19:18:43;;;;;;;;;;;;;;;;;;6223347;22;20313;-83
2023/09/09 19:21:30;;;;;;;;;;;;;;;;;;6265688;22;19919;-82
2023/09/09 19:24:12;;;;;;;;;;;;;;;;;;;;;
2023/09/09 19:26:48;;;;;;;;;;;;;;;;;;6269434;22;20355;-82
2023/09/09 19:29:27;;;;;;;;;;;;;;;;;;6258201;22;19919;-82
2023/09/09 19:32:02;;;;;;;;;;;;;;;;;;6233859;22;20364;-82
2023/09/09 19:37:57;;;;;;;;;;;;;;;;;;6270747;22;19919;-82
2023/09/09 19:40:38;;;;;;;;;;;;;;;;;;6230173;22;20454;-82
2023/09/09 19:43:20;;;;;;;;;;;;;;;;;;6263974;22;19926;-82
2023/09/09 19:52:12;;;;;;;;;;;;;;;;;;6290722;22;19993;-82
2023/09/09 19:57:29;;;;;;;;;;;;;;;;;;6269681;22;19923;-82
2023/09/09 20:00:14;;;;;;;;;;;;;;;;;;;;;
2023/09/09 20:02:52;;;;;;;;;;;;;;;;;;6292612;22;19918;-82
2023/09/09 20:05:48;;;;;;;;;;;;;;;;;;6292258;22;20073;-82